createdAt,value
2022-09-28T00:02:13.449Z,11.80
2022-09-28T00:04:40.370Z,11.50
2022-09-28T00:07:07.375Z,11.00
2022-09-28T00:09:34.200Z,11.85
2022-09-28T00:12:01.258Z,11.93
2022-09-28T00:14:28.327Z,10.98
2022-09-28T00:16:55.343Z,11.38
2022-09-28T00:19:22.142Z,12.23
2022-09-28T00:21:49.170Z,11.30
2022-09-28T00:24:16.099Z,11.70
2022-09-28T00:26:48.441Z,11.93
2022-09-28T00:29:20.049Z,11.75
2022-09-28T00:31:47.242Z,12.30
2022-09-28T00:34:14.178Z,11.68
2022-09-28T00:36:43.730Z,11.63
2022-09-28T00:39:10.591Z,13.18
2022-09-28T00:41:37.526Z,12.23
2022-09-28T00:44:22.762Z,12.80
2022-09-28T00:46:53.774Z,11.70
2022-09-28T00:49:33.382Z,12.02
2022-09-28T00:52:00.233Z,11.38
2022-09-28T00:54:27.260Z,10.85
2022-09-28T00:56:54.062Z,10.07
2022-09-28T00:59:20.804Z,9.90
2022-09-28T01:01:48.616Z,10.20
2022-09-28T01:04:15.413Z,9.82
2022-09-28T01:06:42.166Z,9.50
2022-09-28T01:09:09.158Z,9.48
2022-09-28T01:11:36.997Z,9.38
2022-09-28T01:14:04.369Z,9.20
2022-09-28T01:16:56.337Z,10.43
2022-09-28T01:19:37.862Z,10.27
2022-09-28T01:22:27.753Z,10.32
2022-09-28T01:25:07.939Z,10.13
2022-09-28T01:27:59.781Z,10.30
2022-09-28T01:30:26.561Z,10.25
2022-09-28T01:33:19.352Z,9.57
2022-09-28T01:36:00.357Z,8.77
2022-09-28T01:38:30.903Z,8.70
2022-09-28T01:40:58.575Z,8.65
2022-09-28T01:43:27.097Z,7.68
2022-09-28T01:45:54.077Z,8.38
2022-09-28T01:48:27.226Z,8.35
2022-09-28T01:50:55.226Z,7.85
2022-09-28T01:53:40.389Z,7.60
2022-09-28T01:56:10.919Z,7.90
2022-09-28T01:58:45.521Z,8.10
2022-09-28T02:01:16.625Z,7.77
2022-09-28T02:03:48.864Z,7.40
2022-09-28T02:06:18.456Z,6.60
2022-09-28T02:08:57.146Z,6.57
2022-09-28T02:11:23.913Z,6.70
2022-09-28T02:13:58.761Z,5.75
2022-09-28T02:16:49.101Z,6.20
2022-09-28T02:19:18.181Z,5.90
2022-09-28T02:22:04.943Z,6.22
2022-09-28T02:24:39.791Z,5.38
2022-09-28T02:27:20.784Z,5.50
2022-09-28T02:29:48.823Z,5.38
2022-09-28T02:32:16.020Z,4.93
2022-09-28T02:34:42.803Z,5.97
2022-09-28T02:37:09.828Z,4.85
2022-09-28T02:39:36.605Z,4.65
2022-09-28T02:42:12.007Z,5.30
2022-09-28T02:45:10.193Z,4.63
2022-09-28T02:48:04.882Z,4.40
2022-09-28T02:50:51.788Z,4.93
2022-09-28T02:53:37.235Z,4.60
2022-09-28T02:56:26.242Z,4.80
2022-09-28T02:59:31.044Z,4.10
2022-09-28T03:02:16.943Z,4.15
2022-09-28T03:05:17.851Z,4.68
2022-09-28T03:08:03.950Z,4.45
2022-09-28T03:13:02.520Z,3.95
2022-09-28T03:15:30.833Z,4.18
2022-09-28T03:17:58.004Z,5.13
2022-09-28T03:20:25.960Z,4.75
2022-09-28T03:23:19.711Z,4.53
2022-09-28T03:25:39.850Z,5.72
2022-09-28T03:28:06.632Z,4.53
2022-09-28T03:30:33.538Z,4.35
2022-09-28T03:33:00.850Z,5.15
2022-09-28T03:35:27.638Z,5.53
2022-09-28T03:37:56.082Z,4.88
2022-09-28T03:40:23.289Z,5.10
2022-09-28T03:42:50.098Z,5.85
2022-09-28T03:45:16.974Z,5.43
2022-09-28T03:47:47.178Z,5.88
2022-09-28T03:50:14.304Z,5.70
2022-09-28T03:52:41.294Z,5.18
2022-09-28T03:55:08.835Z,5.60
2022-09-28T03:57:35.566Z,4.63
2022-09-28T04:00:03.666Z,4.53
2022-09-28T04:02:30.903Z,5.00
2022-09-28T04:04:57.782Z,4.95
2022-09-28T04:07:26.922Z,4.30
2022-09-28T04:09:57.336Z,4.85
2022-09-28T04:12:24.150Z,4.93
2022-09-28T04:14:51.012Z,4.00
2022-09-28T04:17:18.018Z,5.50
2022-09-28T04:19:44.859Z,4.78
2022-09-28T04:22:11.658Z,5.03
2022-09-28T04:24:39.190Z,4.65
2022-09-28T04:27:24.546Z,5.22
2022-09-28T04:29:51.599Z,5.10
2022-09-28T04:32:18.368Z,5.40
2022-09-28T04:34:45.214Z,5.10
2022-09-28T04:37:12.259Z,4.93
2022-09-28T04:39:42.264Z,5.35
2022-09-28T04:42:12.101Z,5.95
2022-09-28T04:44:39.158Z,5.15
2022-09-28T04:47:05.930Z,6.13
2022-09-28T04:49:35.338Z,5.47
2022-09-28T04:52:02.454Z,5.63
2022-09-28T04:54:29.297Z,4.80
2022-09-28T04:56:56.114Z,5.55
2022-09-28T04:59:23.423Z,5.40
2022-09-28T05:01:50.229Z,5.28
2022-09-28T05:04:17.407Z,5.60
2022-09-28T05:06:45.283Z,5.45
2022-09-28T05:09:12.024Z,5.57
2022-09-28T05:11:38.784Z,5.53
2022-09-28T05:14:06.001Z,5.03
2022-09-28T05:16:33.948Z,5.18
2022-09-28T05:19:00.904Z,5.05
2022-09-28T05:21:29.382Z,5.97
2022-09-28T05:23:58.255Z,4.90
2022-09-28T05:26:25.091Z,5.20
2022-09-28T05:28:52.140Z,5.10
2022-09-28T05:31:18.976Z,5.88
2022-09-28T05:33:45.832Z,5.50
2022-09-28T05:36:12.901Z,5.38
2022-09-28T05:38:39.753Z,5.15
2022-09-28T05:41:07.046Z,5.38
2022-09-28T05:43:34.237Z,4.90
2022-09-28T05:46:01.115Z,4.95
2022-09-28T05:48:28.444Z,5.60
2022-09-28T05:50:55.600Z,6.45
2022-09-28T05:53:22.549Z,5.85
2022-09-28T05:55:49.420Z,5.43
2022-09-28T05:58:16.568Z,6.13
2022-09-28T06:00:43.509Z,4.78
2022-09-28T06:03:13.913Z,4.50
2022-09-28T06:05:41.090Z,5.57
2022-09-28T06:08:10.306Z,5.25
2022-09-28T06:10:37.238Z,5.28
2022-09-28T06:13:04.653Z,5.82
2022-09-28T06:15:34.407Z,7.40
2022-09-28T06:18:06.251Z,6.07
2022-09-28T06:20:35.951Z,6.20
2022-09-28T06:23:02.766Z,6.10
2022-09-28T06:25:29.748Z,7.03
2022-09-28T06:28:04.522Z,5.43
2022-09-28T06:30:33.059Z,5.55
2022-09-28T06:33:00.866Z,4.80
2022-09-28T06:35:30.338Z,5.82
2022-09-28T06:37:58.249Z,5.40
2022-09-28T06:40:25.514Z,4.50
2022-09-28T06:43:00.093Z,4.80
2022-09-28T06:45:28.136Z,5.68
2022-09-28T06:47:59.030Z,5.10
2022-09-28T06:50:27.184Z,4.90
2022-09-28T06:52:54.759Z,4.25
2022-09-28T06:55:21.887Z,5.50
2022-09-28T06:57:55.628Z,5.07
2022-09-28T07:00:22.714Z,5.57
2022-09-28T07:02:49.502Z,5.55
2022-09-28T07:05:16.415Z,4.72
2022-09-28T07:07:44.769Z,5.50
2022-09-28T07:10:11.910Z,5.00
2022-09-28T07:12:39.880Z,5.03
2022-09-28T07:15:07.458Z,4.15
2022-09-28T07:17:50.349Z,3.95
2022-09-28T07:20:21.810Z,5.93
2022-09-28T07:22:53.406Z,4.18
2022-09-28T07:25:20.571Z,4.60
2022-09-28T07:27:47.650Z,4.28
2022-09-28T07:30:14.759Z,3.22
2022-09-28T07:32:42.037Z,3.60
2022-09-28T07:35:09.716Z,4.25
2022-09-28T07:37:36.783Z,3.28
2022-09-28T07:40:25.455Z,4.20
2022-09-28T07:42:52.775Z,4.68
2022-09-28T07:45:25.665Z,4.38
2022-09-28T07:47:58.457Z,5.93
2022-09-28T07:50:25.639Z,5.35
2022-09-28T07:52:52.385Z,6.20
2022-09-28T07:55:19.184Z,5.72
2022-09-28T07:57:48.368Z,6.05
2022-09-28T08:00:15.746Z,6.78
2022-09-28T08:02:42.742Z,5.97
2022-09-28T08:05:10.119Z,5.63
2022-09-28T08:07:38.333Z,6.13
2022-09-28T08:10:05.654Z,5.18
2022-09-28T08:12:33.421Z,5.72
2022-09-28T08:15:00.230Z,5.50
2022-09-28T08:17:27.132Z,5.95
2022-09-28T08:20:12.601Z,5.32
2022-09-28T08:22:39.932Z,6.13
2022-09-28T08:25:07.555Z,6.28
2022-09-28T08:27:34.375Z,6.28
2022-09-28T08:30:01.162Z,7.43
2022-09-28T08:32:29.794Z,6.07
2022-09-28T08:34:56.587Z,6.43
2022-09-28T08:37:23.342Z,6.32
2022-09-28T08:39:50.437Z,5.95
2022-09-28T08:42:30.743Z,5.95
2022-09-28T08:45:00.348Z,5.10
2022-09-28T08:47:53.068Z,4.97
2022-09-28T08:50:24.263Z,5.05
2022-09-28T08:52:54.311Z,5.60
2022-09-28T08:55:39.560Z,4.45
2022-09-28T08:58:14.440Z,4.30
2022-09-28T09:00:49.341Z,4.40
2022-09-28T09:03:34.438Z,5.05
2022-09-28T09:06:18.499Z,4.50
2022-09-28T09:09:11.206Z,4.05
2022-09-28T09:12:03.483Z,3.35
2022-09-28T09:14:59.632Z,3.78
2022-09-28T09:17:52.026Z,3.58
2022-09-28T09:20:33.932Z,4.38
2022-09-28T09:23:01.869Z,3.05
2022-09-28T09:25:53.213Z,3.85
2022-09-28T09:28:29.586Z,3.38
2022-09-28T09:31:02.674Z,3.97
2022-09-28T09:34:00.359Z,3.50
2022-09-28T09:36:33.398Z,3.38
2022-09-28T09:39:26.759Z,2.65
2022-09-28T09:42:12.385Z,2.65
2022-09-28T09:44:42.588Z,2.47
2022-09-28T09:47:15.043Z,2.65
2022-09-28T09:50:05.496Z,2.38
2022-09-28T09:52:54.954Z,2.20
2022-09-28T09:55:30.068Z,2.17
2022-09-28T09:58:33.171Z,2.20
2022-09-28T10:01:07.197Z,1.90
2022-09-28T10:03:35.021Z,2.13
2022-09-28T10:06:05.146Z,2.35
2022-09-28T10:08:34.746Z,1.80
2022-09-28T10:11:07.623Z,2.00
2022-09-28T10:13:35.096Z,1.50
2022-09-28T10:16:02.109Z,1.83
2022-09-28T10:18:28.980Z,1.80
2022-09-28T10:20:56.105Z,1.70
2022-09-28T10:23:28.399Z,2.13
2022-09-28T10:25:59.497Z,2.38
2022-09-28T10:28:50.817Z,2.80
2022-09-28T10:31:35.992Z,3.58
2022-09-28T10:34:04.528Z,2.78
2022-09-28T10:36:38.329Z,2.70
2022-09-28T10:39:06.100Z,2.83
2022-09-28T10:41:32.940Z,2.53
2022-09-28T10:44:08.892Z,2.28
2022-09-28T10:46:36.281Z,1.80
2022-09-28T10:49:05.000Z,1.75
2022-09-28T10:51:51.824Z,1.58
2022-09-28T10:54:19.938Z,1.60
2022-09-28T10:56:47.204Z,1.45
2022-09-28T10:59:43.462Z,1.50
2022-09-28T11:02:13.310Z,1.50
2022-09-28T11:04:42.015Z,1.60
2022-09-28T11:07:19.333Z,1.88
2022-09-28T11:09:49.525Z,1.50
2022-09-28T11:12:38.328Z,1.63
2022-09-28T11:15:06.548Z,1.50
2022-09-28T11:17:38.571Z,1.20
2022-09-28T11:20:27.449Z,1.73
2022-09-28T11:22:56.804Z,1.83
2022-09-28T11:25:28.215Z,1.77
2022-09-28T11:28:02.099Z,1.88
2022-09-28T11:30:45.994Z,2.13
2022-09-28T11:33:37.219Z,2.50
2022-09-28T11:36:13.217Z,1.83
2022-09-28T11:38:55.297Z,2.10
2022-09-28T11:41:28.557Z,2.30
2022-09-28T11:44:01.667Z,1.95
2022-09-28T11:47:06.217Z,1.75
2022-09-28T11:49:40.131Z,1.98
2022-09-28T11:52:12.480Z,2.10
2022-09-28T11:54:50.020Z,2.38
2022-09-28T11:57:20.840Z,2.03
2022-09-28T11:59:52.080Z,2.40
2022-09-28T12:02:27.795Z,2.22
2022-09-28T12:05:01.063Z,1.92
2022-09-28T12:07:44.721Z,1.73
2022-09-28T12:10:50.897Z,2.17
2022-09-28T12:16:20.050Z,2.17
2022-09-28T12:21:37.631Z,2.55
2022-09-28T12:24:29.434Z,2.72
2022-09-28T12:27:12.953Z,2.95
2022-09-28T12:30:00.291Z,2.92
2022-09-28T12:32:36.229Z,3.78
2022-09-28T12:35:03.696Z,4.10
2022-09-28T12:37:33.583Z,4.40
2022-09-28T12:40:20.645Z,4.35
2022-09-28T12:43:17.657Z,4.40
2022-09-28T12:46:15.569Z,3.47
2022-09-28T12:49:43.635Z,3.85
2022-09-28T12:51:49.607Z,3.63
2022-09-28T12:54:34.493Z,3.70
2022-09-28T12:57:29.985Z,4.35
2022-09-28T13:00:03.089Z,3.47
2022-09-28T13:03:07.069Z,3.88
2022-09-28T13:05:59.042Z,3.13
2022-09-28T13:08:34.738Z,3.20
2022-09-28T13:11:18.233Z,3.22
2022-09-28T13:13:58.160Z,3.70
2022-09-28T13:16:31.445Z,3.58
2022-09-28T13:19:20.628Z,4.00
2022-09-28T13:22:15.168Z,3.50
2022-09-28T13:24:44.272Z,4.10
2022-09-28T13:27:17.424Z,4.20
2022-09-28T13:29:44.394Z,4.38
2022-09-28T13:32:12.655Z,4.35
2022-09-28T13:34:39.986Z,4.53
2022-09-28T13:37:21.947Z,3.88
2022-09-28T13:39:52.867Z,3.60
2022-09-28T13:42:22.766Z,3.45
2022-09-28T13:44:59.472Z,3.83
2022-09-28T13:47:31.896Z,4.03
2022-09-28T13:50:25.715Z,3.67
2022-09-28T13:53:02.358Z,4.20
2022-09-28T13:55:32.936Z,4.47
2022-09-28T13:58:15.080Z,4.53
2022-09-28T14:00:56.728Z,4.25
2022-09-28T14:03:46.146Z,5.07
2022-09-28T14:06:30.359Z,5.40
2022-09-28T14:09:09.961Z,7.55
2022-09-28T14:11:36.913Z,7.22
2022-09-28T14:14:13.948Z,7.22
2022-09-28T14:16:41.465Z,6.88
2022-09-28T14:19:44.147Z,6.82
2022-09-28T14:22:17.646Z,6.28
2022-09-28T14:24:54.801Z,6.28
2022-09-28T14:27:37.850Z,5.85
2022-09-28T14:30:13.860Z,6.50
2022-09-28T14:32:42.902Z,5.35
2022-09-28T14:35:39.304Z,6.53
2022-09-28T14:38:38.145Z,6.47
2022-09-28T14:41:14.956Z,8.52
2022-09-28T14:43:44.867Z,7.32
2022-09-28T14:46:12.351Z,7.35
2022-09-28T14:48:58.228Z,6.22
2022-09-28T14:51:26.308Z,6.50
2022-09-28T14:53:54.697Z,6.40
2022-09-28T14:56:21.876Z,5.43
2022-09-28T14:58:53.416Z,5.68
2022-09-28T15:01:20.941Z,5.28
2022-09-28T15:03:48.868Z,5.07
2022-09-28T15:06:16.270Z,5.88
2022-09-28T15:08:43.024Z,4.93
2022-09-28T15:11:18.264Z,5.57
2022-09-28T15:13:45.432Z,5.80
2022-09-28T15:16:18.911Z,5.95
2022-09-28T15:19:18.773Z,5.50
2022-09-28T15:21:47.772Z,5.45
2022-09-28T15:24:33.964Z,5.50
2022-09-28T15:27:03.209Z,4.85
2022-09-28T15:29:33.423Z,5.32
2022-09-28T15:32:00.741Z,4.93
2022-09-28T15:34:52.001Z,4.85
2022-09-28T15:37:27.540Z,4.80
2022-09-28T15:42:22.575Z,4.75
2022-09-28T15:45:23.006Z,4.63
2022-09-28T15:47:50.116Z,4.82
2022-09-28T15:50:30.492Z,4.45
2022-09-28T15:53:00.872Z,4.78
2022-09-28T15:55:32.487Z,4.97
2022-09-28T15:58:27.466Z,3.83
2022-09-28T16:01:18.414Z,4.40
2022-09-28T16:03:45.519Z,4.00
2022-09-28T16:06:12.326Z,3.78
2022-09-28T16:08:42.045Z,3.80
2022-09-28T16:11:24.239Z,4.05
2022-09-28T16:14:02.576Z,4.00
2022-09-28T16:16:31.080Z,4.35
2022-09-28T16:19:00.776Z,4.88
2022-09-28T16:21:46.716Z,5.15
2022-09-28T16:24:33.533Z,5.55
2022-09-28T16:27:04.800Z,5.00
2022-09-28T16:29:42.052Z,4.88
2022-09-28T16:32:33.620Z,5.28
2022-09-28T16:35:13.004Z,5.93
2022-09-28T16:37:43.322Z,6.13
2022-09-28T16:40:10.833Z,5.72
2022-09-28T16:42:44.402Z,6.32
2022-09-28T16:45:21.678Z,6.20
2022-09-28T16:47:52.984Z,6.47
2022-09-28T16:50:21.097Z,6.60
2022-09-28T16:53:08.625Z,6.47
2022-09-28T16:55:40.635Z,6.15
2022-09-28T16:58:08.193Z,7.05
2022-09-28T17:00:35.061Z,6.00
2022-09-28T17:03:02.304Z,5.93
2022-09-28T17:05:29.503Z,6.85
2022-09-28T17:08:03.438Z,6.97
2022-09-28T17:10:56.157Z,7.22
2022-09-28T17:13:33.286Z,7.72
2022-09-28T17:16:02.894Z,7.40
2022-09-28T17:18:31.933Z,7.93
2022-09-28T17:21:01.334Z,8.68
2022-09-28T17:23:28.384Z,8.25
2022-09-28T17:25:55.689Z,8.07
2022-09-28T17:28:24.304Z,8.82
2022-09-28T17:30:51.486Z,7.63
2022-09-28T17:33:18.447Z,8.57
2022-09-28T17:35:45.292Z,7.35
2022-09-28T17:38:13.194Z,7.63
2022-09-28T17:40:40.281Z,6.55
2022-09-28T17:43:07.298Z,7.28
2022-09-28T17:45:39.074Z,7.55
2022-09-28T17:48:16.219Z,7.88
2022-09-28T17:50:46.423Z,8.50
2022-09-28T17:53:13.905Z,8.75
2022-09-28T17:55:40.910Z,9.15
2022-09-28T17:58:18.603Z,8.55
2022-09-28T18:00:46.043Z,7.50
2022-09-28T18:03:21.291Z,7.68
2022-09-28T18:06:10.972Z,8.13
2022-09-28T18:08:37.998Z,8.35
2022-09-28T18:11:04.993Z,7.40
2022-09-28T18:13:31.795Z,7.82
2022-09-28T18:15:58.943Z,7.13
2022-09-28T18:18:25.877Z,7.97
2022-09-28T18:20:52.793Z,7.93
2022-09-28T18:23:19.954Z,7.30
2022-09-28T18:25:47.141Z,7.72
2022-09-28T18:28:13.963Z,7.90
2022-09-28T18:30:42.797Z,7.82
2022-09-28T18:33:09.974Z,7.80
2022-09-28T18:35:36.805Z,8.82
2022-09-28T18:38:05.353Z,9.45
2022-09-28T18:40:35.352Z,8.57
2022-09-28T18:43:02.914Z,9.80
2022-09-28T18:45:30.703Z,10.10
2022-09-28T18:47:57.772Z,9.77
2022-09-28T18:50:24.533Z,11.50
2022-09-28T18:52:51.626Z,10.88
2022-09-28T18:55:19.072Z,11.75
2022-09-28T18:57:46.779Z,13.02
2022-09-28T19:00:15.210Z,14.10
2022-09-28T19:02:42.270Z,13.25
2022-09-28T19:05:09.667Z,14.88
2022-09-28T19:07:36.948Z,15.32
2022-09-28T19:10:04.169Z,14.85
2022-09-28T19:12:32.125Z,14.75
2022-09-28T19:14:59.777Z,16.58
2022-09-28T19:17:26.684Z,17.55
2022-09-28T19:19:53.518Z,17.42
2022-09-28T19:22:20.588Z,18.70
2022-09-28T19:24:47.398Z,18.83
2022-09-28T19:27:14.260Z,18.90
2022-09-28T19:29:41.280Z,18.33
2022-09-28T19:32:08.078Z,19.08
2022-09-28T19:34:34.957Z,18.27
2022-09-28T19:37:03.901Z,17.27
2022-09-28T19:39:31.570Z,16.85
2022-09-28T19:41:59.799Z,16.10
2022-09-28T19:44:28.188Z,16.13
2022-09-28T19:47:00.381Z,15.32
2022-09-28T19:49:27.646Z,15.30
2022-09-28T19:52:14.930Z,15.00
2022-09-28T19:54:55.307Z,14.40
2022-09-28T19:57:24.724Z,15.27
2022-09-28T19:59:53.828Z,13.02
2022-09-28T20:02:22.713Z,13.35
2022-09-28T20:04:49.526Z,12.18
2022-09-28T20:07:16.609Z,12.52
2022-09-28T20:09:43.468Z,12.75
2022-09-28T20:12:10.227Z,11.75
2022-09-28T20:14:40.145Z,13.15
2022-09-28T20:17:07.557Z,11.63
2022-09-28T20:19:35.074Z,11.55
2022-09-28T20:22:03.103Z,12.18
2022-09-28T20:24:31.376Z,11.95
2022-09-28T20:26:58.572Z,11.55
2022-09-28T20:29:25.673Z,10.57
2022-09-28T20:31:52.566Z,11.60
2022-09-28T20:34:19.386Z,10.27
2022-09-28T20:36:46.400Z,11.25
2022-09-28T20:39:13.450Z,10.50
2022-09-28T20:41:40.340Z,9.88
2022-09-28T20:44:07.612Z,10.15
2022-09-28T20:46:36.347Z,9.27
2022-09-28T20:49:04.450Z,9.18
2022-09-28T20:51:31.592Z,10.55
2022-09-28T20:53:58.861Z,8.88
2022-09-28T20:56:37.705Z,9.02
2022-09-28T20:59:08.351Z,8.38
2022-09-28T21:01:35.292Z,9.77
2022-09-28T21:04:03.631Z,8.73
2022-09-28T21:06:33.063Z,8.55
2022-09-28T21:08:59.870Z,9.20
2022-09-28T21:11:28.084Z,8.20
2022-09-28T21:13:56.631Z,9.38
2022-09-28T21:16:23.390Z,9.13
2022-09-28T21:18:50.176Z,8.68
2022-09-28T21:21:18.528Z,9.90
2022-09-28T21:23:45.601Z,8.68
2022-09-28T21:26:14.345Z,8.13
2022-09-28T21:28:41.485Z,8.68
2022-09-28T21:31:10.235Z,8.77
2022-09-28T21:33:37.279Z,9.25
2022-09-28T21:36:05.596Z,8.82
2022-09-28T21:38:32.500Z,7.65
2022-09-28T21:40:59.533Z,8.55
2022-09-28T21:43:27.423Z,8.40
2022-09-28T21:45:54.769Z,8.63
2022-09-28T21:48:22.564Z,8.02
2022-09-28T21:50:56.975Z,7.70
2022-09-28T21:53:29.043Z,8.73
2022-09-28T21:55:57.973Z,8.52
2022-09-28T21:58:26.276Z,8.18
2022-09-28T22:01:07.626Z,8.77
2022-09-28T22:03:35.634Z,8.65
2022-09-28T22:06:03.314Z,9.55
2022-09-28T22:08:30.180Z,9.85
2022-09-28T22:11:11.718Z,9.38
2022-09-28T22:13:44.683Z,9.82
2022-09-28T22:16:12.131Z,10.80
2022-09-28T22:18:39.022Z,9.95
2022-09-28T22:21:08.346Z,9.88
2022-09-28T22:23:36.064Z,9.48
2022-09-28T22:26:12.978Z,9.68
2022-09-28T22:28:40.322Z,9.10
2022-09-28T22:31:07.139Z,9.40
2022-09-28T22:33:35.103Z,10.30
2022-09-28T22:36:02.202Z,9.07
2022-09-28T22:38:31.870Z,9.43
2022-09-28T22:40:58.794Z,9.05
2022-09-28T22:43:26.333Z,9.35
2022-09-28T22:46:09.000Z,9.18
2022-09-28T22:48:36.055Z,10.18
2022-09-28T22:51:03.294Z,8.55
2022-09-28T22:53:30.241Z,9.05
2022-09-28T22:55:57.680Z,9.10
2022-09-28T22:58:24.660Z,8.40
2022-09-28T23:00:51.417Z,8.43
2022-09-28T23:03:18.454Z,8.93
2022-09-28T23:05:54.840Z,9.13
2022-09-28T23:08:22.132Z,8.90
2022-09-28T23:10:49.156Z,9.60
2022-09-28T23:13:16.060Z,8.40
2022-09-28T23:15:43.182Z,9.70
2022-09-28T23:18:10.171Z,8.20
2022-09-28T23:20:36.987Z,8.23
2022-09-28T23:23:04.004Z,8.35
2022-09-28T23:25:31.072Z,9.35
2022-09-28T23:27:57.863Z,8.02
2022-09-28T23:30:24.994Z,8.30
2022-09-28T23:32:53.197Z,8.90
2022-09-28T23:35:20.152Z,8.35
2022-09-28T23:37:50.721Z,8.93
2022-09-28T23:40:17.678Z,10.15
2022-09-28T23:42:44.491Z,9.38
2022-09-28T23:45:11.570Z,9.90
2022-09-28T23:47:38.593Z,9.85
2022-09-28T23:50:05.991Z,9.60
2022-09-28T23:52:33.302Z,9.70
2022-09-28T23:55:00.093Z,8.85
2022-09-28T23:57:26.939Z,10.02
2022-09-28T23:59:53.982Z,8.50
